Observations for LARAMIE GEN. BREES, WY (LAR)

KLAR 151953Z AUTO 32021G29KT 10SM CLR 28/M04 A3020 RMK AO2 PK WND 31029/1949 SLP109 T02781039   
KLAR 151853Z AUTO 31011G22KT 10SM CLR 25/04 A3021 RMK AO2 SLP117 T02500044  
KLAR 151753Z AUTO 01010G15KT 10SM CLR 24/07 A3022 RMK AO2 SLP119 T02390067 10244 20083 56004
KLAR 151653Z AUTO 00000KT 10SM CLR 22/06 A3022 RMK AO2 SLP125 T02170056 
KLAR 151553Z AUTO VRB04KT 10SM CLR 18/10 A3022 RMK AO2 SLP131 T01780100 
KLAR 151453Z AUTO 07005KT 10SM CLR 14/11 A3023 RMK AO2 SLP144 T01440106 51014   
KLAR 151353Z AUTO 00000KT 10SM CLR 13/10 A3023 RMK AO2 SLP143 T01280100 
KLAR 151253Z AUTO 34005KT 10SM CLR 09/08 A3021 RMK AO2 SLP141 T00940083 
KLAR 151153Z AUTO 34006KT 10SM CLR 09/07 A3018 RMK AO2 SLP125 70002 T00940067 10133 20078 51010 
KLAR 151053Z AUTO 33004KT 10SM CLR 10/06 A3017 RMK AO2 SLP125 T01000061 
KLAR 150953Z AUTO 28007KT 10SM CLR 12/05 A3016 RMK AO2 SLP123 T01170050 
KLAR 150853Z AUTO 22004KT 10SM CLR 09/08 A3014 RMK AO2 SLP124 T00890083 56003   
KLAR 150753Z AUTO 18010KT 10SM CLR 11/11 A3015 RMK AO2 SLP118 T01110106 
KLAR 150653Z AUTO 17012KT 10SM CLR 13/11 A3015 RMK AO2 SLP094 T01280111 402610094   
KLAR 150553Z AUTO 16016KT 10SM CLR 13/11 A3016 RMK AO2 SLP095 T01330111 10200 20133 56008   
KLAR 150453Z AUTO 15017KT 10SM CLR 14/11 A3016 RMK AO2 PK WND 15029/0357 SLP102 T01390111   
KLAR 150353Z AUTO 15023G29KT 10SM CLR 15/11 A3017 RMK AO2 PK WND 15029/0344 SLP104 T01500111
KLAR 150253Z AUTO 14020G24KT 10SM SCT110 16/11 A3018 RMK AO2 PK WND 15033/0203 SLP115 T01560111 53007   
KLAR 150153Z AUTO 15021G31KT 10SM SCT110 16/12 A3017 RMK AO2 PK WND 15031/0147 SLP122 T01560117 
KLAR 150053Z AUTO 15020G28KT 10SM CLR 18/12 A3016 RMK AO2 PK WND 15032/2357 SLP122 T01780117
KLAR 142353Z AUTO 16023G29KT 10SM CLR 20/12 A3016 RMK AO2 PK WND 16031/2323 RAB2258E17 SLP117 P0001 60002 T02000117 10261 20150 58011   
KLAR 142253Z AUTO 16009KT 10SM FEW060 SCT080 OVC100 17/12 A3021 RMK AO2 LTG DSNT S SLP137 T01720117 
KLAR 142153Z AUTO 11010KT 10SM OVC100 16/11 A3019 RMK AO2 PK WND 09026/2116 RAB12E33 TSB09E24 SLP131 P0000 T01560106
KLAR 142130Z AUTO 09019G23KT 10SM -RA FEW048 SCT060 OVC095 15/11 A3020 RMK AO2 PK WND 09026/2116 LTG DSNT E RAB12 TSB09E24 P0000 T01500111
KLAR 142115Z AUTO 10017G23KT 10SM -TSRA FEW055 SCT075 OVC095 16/12 A3020 RMK AO2 LTG DSNT E AND SE RAB12 TSB09 P0000 T01560122
KLAR 142053Z AUTO 11013KT 10SM VCTS BKN090 OVC110 17/12 A3020 RMK AO2 LTG DSNT E-S RAE00 TSE31 SLP128 P0000 60001 T01670122 50008   
KLAR 142037Z AUTO 10016KT 10SM VCTS SCT090 BKN110 16/13 A3020 RMK AO2 LTG DSNT NE-S RAE00 TSE31 P0000 T01610128
KLAR 142044Z AUTO 10013KT 10SM BKN095 OVC110 17/12 A3020 RMK AO2 LTG DSNT NE-S RAE00 TSE31 P0000 T01670122
KLAR 141953Z AUTO 02010G20KT 5SM -TSRA FEW036 SCT050 BKN075 16/13 A3021 RMK AO2 LTG DSNT NE-S RAB29 TSB29E44B45 SLP128 P0001 T01610128  
KLAR 141931Z AUTO 35017KT 9SM -TSRA BKN075 OVC100 19/09 A3021 RMK AO2 LTG DSNT ALQDS RAB29 TSB29 P0000 T01940089